Repulse Bay, Nunavut

5:02 PM CDT on May 04, 2015 (GMT -0500)
Repulse Bay | | Change Station
CLOSE
Current Station
Airport
Location: Repulse Bay,
Elevation: 79 ft
Nearby Weather Stations

Elev 79 ft 66.53 °N, 86.25 °W | Updated 13 minutes ago

Light Snow
Light Snow Blowing Snow
27 °F
Feels Like 11 °F
N
25
Wind Variable Wind from North

Today
High -- | Low -- °F
--% Chance of Precip.
Yesterday
High -- | Low -- °F
Precip. -- in
3:45 AM 9:40 PM
Full, 99% visible
Pressure 29.42 in
Visibility 5.0 miles
Clouds Mostly Cloudy 800 ft
Overcast 3000 ft
Windchill 11 °F
Dew Point 23 °F
Humidity 86%
Rainfall 0.00 in
Snow Depth Not available.
UV 1 out of 12
Pollen Not available.
Air Quality Not available.
Flu Activity Not available.
SPECI CYUT 042149Z 36022KT 5SM -SN BLSN BKN008 OVC030 M03/M05 A2942 RMK ST7SC1 SLP963

More Conditions Fewer Conditions

Pressure 29.42 in
Visibility 5.0 miles
Clouds Mostly Cloudy 800 ft
Overcast 3000 ft
Windchill 11 °F
Dew Point 23 °F
Humidity 86%
Rainfall 0.00 in
Snow Depth Not available.
UV 1 out of 12
Pollen Not available.
Air Quality Not available.
Flu Activity Not available.
SPECI CYUT 042149Z 36022KT 5SM -SN BLSN BKN008 OVC030 M03/M05 A2942 RMK ST7SC1 SLP963

More Conditions Fewer Conditions

10-Day Weather Forecast

Almanac

Astronomy

May. 04, 2015 Rise Set
Actual Time
Civil Twilight
Nautical Twilight
Astronomical Twilight
Moon
Length of Visible Light
Length of Day
Tomorrow will be .
, % of the Moon is Illuminated

Today's Extremes

Country Highs Country Lows

Community

WunderPhotos

Upload Photos

1,818,709 photos uploaded!

WunderBlogs® & News

Nearby

Air Quality

  Air Quality AQ Index Pollutant
Not available.

Snow Depth

Station Depth Elevation

Earthquake Activity

City Distance Mag. Time & Date
Minimum magnitude displayed is 2.5.

Coastal Water Temperatures

Place Temperature

Stations

Nearby Weather Stations

Station Location Temp. Windchill Dew Point Humidity Wind Precip. Elev Updated Type